| time (UTC) | temp C | wind direction | speed KPH | gust KPH | rain 1hr cm | rain 24hr cm | rain mn cm | humidity % | barometer mb |
| 20260906234522 | 26 | 212 | 4.8 | 9.7 | 0.00 | 0.00 | 0.00 | 29 | 1015.6 |
| 20260906234020 | 26 | 222 | 6.4 | 12.9 | 0.00 | 0.00 | 0.00 | 29 | 1015.8 |
| 20260906233518 | 26 | 206 | 4.8 | 11.3 | 0.00 | 0.00 | 0.00 | 30 | 1015.8 |
| 20260906233036 | 26 | 212 | 8.0 | 17.7 | 0.00 | 0.00 | 0.00 | 30 | 1015.9 |
| 20260906232534 | 26 | 219 | 8.0 | 14.5 | 0.00 | 0.00 | 0.00 | 29 | 1016.0 |
| 20260906232033 | 26 | 221 | 6.4 | 14.5 | 0.00 | 0.00 | 0.00 | 30 | 1016.0 |
| 20260906231531 | 26 | 214 | 6.4 | 14.5 | 0.00 | 0.00 | 0.00 | 29 | 1016.0 |
| 20260906231028 | 26 | 248 | 8.0 | 14.5 | 0.00 | 0.00 | 0.00 | 29 | 1015.9 |
| 20260906230526 | 26 | 257 | 4.8 | 11.3 | 0.00 | 0.00 | 0.00 | 29 | 1016.2 |
| 20260906230024 | 26 | 248 | 6.4 | 14.5 | 0.00 | 0.00 | 0.00 | 29 | 1016.2 |
| 20260906225523 | 26 | 256 | 8.0 | 16.1 | 0.00 | 0.00 | 0.00 | 29 | 1016.2 |
| 20260906225021 | 27 | 247 | 11.3 | 25.7 | 0.00 | 0.00 | 0.00 | 29 | 1016.3 |
| 20260906224518 | 27 | 282 | 9.7 | 20.9 | 0.00 | 0.00 | 0.00 | 29 | 1016.3 |
| 20260906224037 | 27 | 271 | 9.7 | 22.5 | 0.00 | 0.00 | 0.00 | 29 | 1016.3 |
| 20260906223535 | 27 | 269 | 9.7 | 17.7 | 0.00 | 0.00 | 0.00 | 28 | 1016.2 |
| 20260906223033 | 28 | 256 | 9.7 | 16.1 | 0.00 | 0.00 | 0.00 | 27 | 1016.2 |
| 20260906222530 | 28 | 283 | 8.0 | 16.1 | 0.00 | 0.00 | 0.00 | 27 | 1016.4 |
| 20260906222049 | 28 | 271 | 8.0 | 17.7 | 0.00 | 0.00 | 0.00 | 28 | 1016.5 |
| 20260906221527 | 28 | 270 | 9.7 | 20.9 | 0.00 | 0.00 | 0.00 | 27 | 1016.4 |
| 20260906221025 | 28 | 273 | 9.7 | 20.9 | 0.00 | 0.00 | 0.00 | 27 | 1016.7 |
| 20260906220523 | 28 | 271 | 11.3 | 25.7 | 0.00 | 0.00 | 0.00 | 27 | 1016.8 |